createdAt,value
2023-03-02T00:01:50.775Z,36.97
2023-03-02T00:06:51.167Z,31.10
2023-03-02T00:11:49.548Z,27.63
2023-03-02T00:16:47.767Z,31.00
2023-03-02T00:21:46.115Z,36.37
2023-03-02T00:26:45.893Z,32.90
2023-03-02T00:31:44.616Z,31.43
2023-03-02T00:36:43.210Z,32.73
2023-03-02T00:41:41.717Z,29.13
2023-03-02T00:46:41.388Z,29.20
2023-03-02T00:51:39.748Z,32.63
2023-03-02T00:56:37.819Z,33.33
2023-03-02T01:01:38.270Z,29.73
2023-03-02T01:06:47.255Z,29.33
2023-03-02T01:11:45.583Z,32.13
2023-03-02T01:16:44.743Z,31.97
2023-03-02T01:21:44.830Z,27.70
2023-03-02T01:26:43.233Z,29.90
2023-03-02T01:31:41.503Z,33.17
2023-03-02T01:36:39.741Z,34.60
2023-03-02T01:41:39.315Z,30.37
2023-03-02T01:46:37.546Z,30.53
2023-03-02T01:51:41.856Z,24.20
2023-03-02T01:56:42.145Z,33.43
2023-03-02T02:01:44.204Z,26.07
2023-03-02T02:06:47.745Z,29.20
2023-03-02T02:11:47.679Z,30.13
2023-03-02T02:16:46.059Z,26.60
2023-03-02T02:21:44.356Z,27.70
2023-03-02T02:26:49.151Z,29.07
2023-03-02T02:31:51.980Z,32.40
2023-03-02T02:36:53.436Z,29.60
2023-03-02T02:41:56.721Z,25.60
2023-03-02T02:46:55.570Z,24.57
2023-03-02T02:51:54.044Z,29.53
2023-03-02T02:56:55.332Z,30.60
2023-03-02T03:01:54.062Z,30.67
2023-03-02T03:06:54.402Z,22.70
2023-03-02T03:11:56.889Z,26.50
2023-03-02T03:16:56.303Z,28.20
2023-03-02T03:21:57.272Z,29.63
2023-03-02T03:26:58.482Z,27.40
2023-03-02T03:31:58.958Z,31.27
2023-03-02T03:37:01.798Z,29.93
2023-03-02T03:42:05.653Z,30.57
2023-03-02T03:47:04.847Z,26.47
2023-03-02T03:52:03.631Z,32.73
2023-03-02T03:57:02.247Z,28.73
2023-03-02T04:02:03.885Z,23.20
2023-03-02T04:07:07.320Z,24.70
2023-03-02T04:12:08.458Z,22.57
2023-03-02T04:17:08.838Z,28.00
2023-03-02T04:22:11.312Z,32.23
2023-03-02T04:27:09.817Z,24.57
2023-03-02T04:32:09.780Z,25.20
2023-03-02T04:37:10.169Z,22.27
2023-03-02T04:42:08.476Z,36.40
2023-03-02T04:47:06.757Z,25.30
2023-03-02T04:52:06.721Z,25.37
2023-03-02T04:57:05.562Z,20.67
2023-03-02T05:02:03.882Z,25.80
2023-03-02T05:07:02.174Z,25.90
2023-03-02T05:12:02.500Z,28.70
2023-03-02T05:17:00.852Z,23.83
2023-03-02T05:21:59.049Z,24.93
2023-03-02T05:26:57.440Z,22.93
2023-03-02T05:31:57.246Z,26.83
2023-03-02T05:36:57.202Z,27.80
2023-03-02T05:41:55.501Z,30.43
2023-03-02T05:46:53.739Z,25.83
2023-03-02T05:51:53.362Z,32.87
2023-03-02T05:56:51.621Z,24.17
2023-03-02T06:01:50.077Z,31.30
2023-03-02T06:06:48.282Z,37.43
2023-03-02T06:11:47.917Z,43.13
2023-03-02T06:16:48.944Z,38.00
2023-03-02T06:21:47.181Z,39.83
2023-03-02T06:26:45.404Z,37.97
2023-03-02T06:31:45.136Z,46.47
2023-03-02T06:36:43.431Z,41.07
2023-03-02T06:41:41.657Z,43.13
2023-03-02T06:46:40.619Z,55.50
2023-03-02T06:51:40.397Z,42.93
2023-03-02T06:56:40.959Z,53.20
2023-03-02T07:01:39.392Z,43.83
2023-03-02T07:06:39.034Z,48.60
2023-03-02T07:11:37.264Z,50.90
2023-03-02T07:16:35.795Z,54.67
2023-03-02T07:21:34.160Z,45.67
2023-03-02T07:26:33.989Z,39.83
2023-03-02T07:31:32.560Z,46.00
2023-03-02T07:36:31.149Z,46.17
2023-03-02T07:41:29.343Z,44.67
2023-03-02T07:46:29.044Z,49.07
2023-03-02T07:51:27.316Z,52.03
2023-03-02T07:56:25.517Z,57.90
2023-03-02T08:01:23.593Z,46.97
2023-03-02T08:06:23.362Z,52.27
2023-03-02T08:11:21.414Z,51.00
2023-03-02T08:16:19.729Z,52.87
2023-03-02T08:21:19.332Z,45.40
2023-03-02T08:26:19.868Z,45.00
2023-03-02T08:31:18.200Z,49.53
2023-03-02T08:36:18.695Z,41.37
2023-03-02T08:41:20.312Z,44.27
2023-03-02T08:46:20.037Z,44.83
2023-03-02T08:51:20.550Z,49.13
2023-03-02T08:56:22.935Z,41.97
2023-03-02T09:01:23.948Z,49.80
2023-03-02T09:06:22.598Z,45.00
2023-03-02T09:11:22.485Z,39.63
2023-03-02T09:16:20.744Z,49.37
2023-03-02T09:21:19.080Z,47.50
2023-03-02T09:26:17.282Z,47.30
2023-03-02T09:31:16.977Z,52.80
2023-03-02T09:36:20.237Z,44.43
2023-03-02T09:41:58.775Z,49.83
2023-03-02T09:47:03.522Z,42.20
2023-03-02T09:52:11.625Z,53.10
2023-03-02T09:57:21.784Z,44.43
2023-03-02T10:02:29.934Z,42.03
2023-03-02T10:07:30.700Z,44.70
2023-03-02T10:12:54.882Z,44.47
2023-03-02T10:18:02.299Z,37.80
2023-03-02T10:23:09.615Z,36.03
2023-03-02T10:28:15.485Z,38.07
2023-03-02T10:33:17.925Z,41.50
2023-03-02T10:38:17.823Z,37.30
2023-03-02T10:43:20.150Z,35.17
2023-03-02T10:48:20.883Z,35.23
2023-03-02T10:53:20.116Z,34.13
2023-03-02T10:58:25.987Z,30.63
2023-03-02T11:03:26.003Z,26.67
2023-03-02T11:08:26.836Z,31.77
2023-03-02T11:13:28.484Z,34.13
2023-03-02T11:18:32.415Z,31.27
2023-03-02T11:23:42.100Z,28.63
2023-03-02T11:28:49.529Z,28.60
2023-03-02T11:34:11.591Z,23.57
2023-03-02T11:39:19.113Z,30.17
2023-03-02T11:44:19.724Z,27.30
2023-03-02T11:49:23.621Z,24.13
2023-03-02T11:54:34.066Z,28.73
2023-03-02T11:59:33.452Z,24.43
2023-03-02T12:04:35.507Z,21.33
2023-03-02T12:09:37.306Z,26.03
2023-03-02T12:14:39.389Z,27.80
2023-03-02T12:19:45.241Z,30.97
2023-03-02T12:24:46.109Z,25.30
2023-03-02T12:29:46.385Z,26.67
2023-03-02T12:34:52.909Z,24.70
2023-03-02T12:40:26.727Z,27.43
2023-03-02T12:45:42.747Z,20.00
2023-03-02T12:50:43.041Z,27.53
2023-03-02T12:55:41.294Z,20.83
2023-03-02T13:00:39.545Z,22.60
2023-03-02T13:05:37.773Z,26.77
2023-03-02T13:10:40.493Z,24.47
2023-03-02T13:15:49.113Z,22.50
2023-03-02T13:20:49.010Z,30.33
2023-03-02T13:25:54.464Z,27.37
2023-03-02T13:30:58.194Z,32.83
2023-03-02T13:35:57.209Z,26.80
2023-03-02T13:40:57.836Z,25.77
2023-03-02T13:45:57.817Z,23.10
2023-03-02T13:50:58.938Z,25.20
2023-03-02T13:56:01.264Z,28.97
2023-03-02T14:00:59.378Z,24.07
2023-03-02T14:05:59.539Z,27.47
2023-03-02T14:11:01.170Z,25.90
2023-03-02T14:15:59.509Z,26.07
2023-03-02T14:20:58.412Z,22.30
2023-03-02T14:25:59.045Z,22.77
2023-03-02T14:30:59.149Z,29.70
2023-03-02T14:35:59.578Z,22.20
2023-03-02T14:40:59.692Z,25.03
2023-03-02T14:45:57.981Z,21.00
2023-03-02T14:50:56.281Z,20.23
2023-03-02T14:55:54.524Z,20.13
2023-03-02T15:00:54.123Z,19.63
2023-03-02T15:06:00.899Z,14.77
2023-03-02T15:10:59.866Z,18.93
2023-03-02T15:15:59.586Z,19.87
2023-03-02T15:20:57.829Z,22.80
2023-03-02T15:26:00.009Z,14.33
2023-03-02T15:31:07.112Z,14.57
2023-03-02T15:36:07.380Z,15.80
2023-03-02T15:41:06.662Z,15.60
2023-03-02T15:46:07.011Z,14.00
2023-03-02T15:51:07.592Z,11.40
2023-03-02T15:56:07.196Z,12.70
2023-03-02T16:01:10.181Z,15.70
2023-03-02T16:06:09.818Z,13.00
2023-03-02T16:11:09.694Z,13.03
2023-03-02T16:16:10.801Z,17.00
2023-03-02T16:21:13.361Z,13.70
2023-03-02T16:26:14.658Z,17.60
2023-03-02T16:31:17.663Z,17.80
2023-03-02T16:36:15.830Z,18.37
2023-03-02T16:41:16.399Z,15.77
2023-03-02T16:46:17.067Z,13.70
2023-03-02T16:51:15.346Z,18.07
2023-03-02T16:56:14.386Z,17.67
2023-03-02T17:01:14.713Z,24.37
2023-03-02T17:06:16.204Z,32.60
2023-03-02T17:11:14.425Z,38.10
2023-03-02T17:16:12.804Z,23.53
2023-03-02T17:21:11.020Z,22.73
2023-03-02T17:26:10.843Z,27.93
2023-03-02T17:31:09.402Z,32.13
2023-03-02T17:36:13.194Z,24.23
2023-03-02T17:41:13.129Z,26.43
2023-03-02T17:46:14.058Z,28.10
2023-03-02T17:51:15.030Z,26.97
2023-03-02T17:56:16.013Z,32.13
2023-03-02T18:01:16.035Z,33.87
2023-03-02T18:06:17.968Z,30.57
2023-03-02T18:11:18.356Z,27.50
2023-03-02T18:16:16.659Z,22.00
2023-03-02T18:21:15.054Z,25.90
2023-03-02T18:26:14.116Z,28.17
2023-03-02T18:31:16.949Z,28.30
2023-03-02T18:36:16.663Z,32.10
2023-03-02T18:41:15.733Z,35.90
2023-03-02T18:46:24.930Z,39.33
2023-03-02T18:51:24.531Z,39.47
2023-03-02T18:56:23.601Z,35.10
2023-03-02T19:01:23.243Z,36.60
2023-03-02T19:06:23.177Z,40.80
2023-03-02T19:11:21.778Z,38.83
2023-03-02T19:16:19.913Z,36.13
2023-03-02T19:21:19.606Z,38.27
2023-03-02T19:26:17.862Z,38.60
2023-03-02T19:31:16.924Z,40.50
2023-03-02T19:36:15.428Z,38.37
2023-03-02T19:41:17.354Z,30.33
2023-03-02T19:46:16.217Z,37.63
2023-03-02T19:51:16.047Z,34.63
2023-03-02T19:56:16.568Z,37.77
2023-03-02T20:01:21.927Z,38.83
2023-03-02T20:06:20.903Z,29.67
2023-03-02T20:11:21.656Z,28.83
2023-03-02T20:16:22.922Z,40.13
2023-03-02T20:21:26.715Z,32.50
2023-03-02T20:26:27.142Z,36.33
2023-03-02T20:31:26.962Z,27.80
2023-03-02T20:36:29.769Z,36.87
2023-03-02T20:41:30.349Z,28.33
2023-03-02T20:46:35.004Z,26.43
2023-03-02T20:51:33.482Z,25.47
2023-03-02T20:56:33.318Z,32.30
2023-03-02T21:01:32.056Z,27.10
2023-03-02T21:06:33.448Z,33.60
2023-03-02T21:11:33.221Z,32.03
2023-03-02T21:16:36.546Z,28.70
2023-03-02T21:21:41.391Z,25.03
2023-03-02T21:26:44.340Z,31.00
2023-03-02T21:31:43.950Z,30.43
2023-03-02T21:36:42.481Z,31.20
2023-03-02T21:41:44.013Z,22.93
2023-03-02T21:46:42.699Z,26.60
2023-03-02T21:51:41.110Z,32.63
2023-03-02T21:56:39.740Z,27.27
2023-03-02T22:01:39.477Z,33.37
2023-03-02T22:06:38.832Z,36.40
2023-03-02T22:11:38.872Z,33.60
2023-03-02T22:16:40.274Z,31.17
2023-03-02T22:21:44.415Z,47.00
2023-03-02T22:26:44.566Z,48.73
2023-03-02T22:31:47.749Z,39.80
2023-03-02T22:36:46.226Z,41.03
2023-03-02T22:41:44.756Z,33.77
2023-03-02T22:46:44.549Z,34.40
2023-03-02T22:51:42.793Z,40.70
2023-03-02T22:56:45.966Z,37.57
2023-03-02T23:01:47.099Z,33.10
2023-03-02T23:06:47.373Z,33.10
2023-03-02T23:11:46.053Z,31.40
2023-03-02T23:16:55.342Z,38.73
2023-03-02T23:21:53.611Z,37.83
2023-03-02T23:26:53.509Z,38.47
2023-03-02T23:31:53.090Z,51.10
2023-03-02T23:36:51.250Z,37.13
2023-03-02T23:41:49.580Z,44.60
2023-03-02T23:46:47.934Z,49.83
2023-03-02T23:51:48.125Z,45.70
2023-03-02T23:56:46.367Z,40.33
